createdAt,value
2019-04-22T00:02:00.518Z,45.50
2019-04-22T00:04:42.167Z,45.40
2019-04-22T00:07:22.740Z,45.56
2019-04-22T00:09:59.471Z,45.87
2019-04-22T00:12:27.588Z,45.75
2019-04-22T00:14:52.487Z,45.87
2019-04-22T00:17:38.703Z,45.98
2019-04-22T00:20:06.122Z,46.58
2019-04-22T00:22:35.136Z,46.52
2019-04-22T00:25:10.466Z,46.66
2019-04-22T00:27:40.724Z,46.63
2019-04-22T00:30:15.504Z,46.37
2019-04-22T00:32:50.009Z,46.88
2019-04-22T00:35:18.173Z,47.33
2019-04-22T00:37:56.996Z,47.58
2019-04-22T00:40:28.181Z,48.10
2019-04-22T00:45:36.795Z,47.90
2019-04-22T00:48:00.888Z,47.98
2019-04-22T00:50:37.463Z,48.14
2019-04-22T00:53:11.950Z,48.32
2019-04-22T00:55:38.095Z,48.58
2019-04-22T00:58:14.201Z,48.71
2019-04-22T01:00:44.412Z,48.69
2019-04-22T01:03:21.478Z,48.66
2019-04-22T01:05:46.855Z,48.94
2019-04-22T01:08:26.696Z,49.13
2019-04-22T01:10:57.019Z,49.03
2019-04-22T01:13:24.760Z,49.51
2019-04-22T01:16:03.195Z,50.40
2019-04-22T01:18:25.081Z,50.89
2019-04-22T01:23:28.192Z,51.27
2019-04-22T01:25:57.058Z,51.13
2019-04-22T01:28:23.915Z,51.23
2019-04-22T01:30:51.439Z,51.24
2019-04-22T01:33:23.261Z,51.01
2019-04-22T01:36:02.728Z,51.19
2019-04-22T01:38:36.692Z,51.12
2019-04-22T01:41:16.475Z,51.48
2019-04-22T01:43:51.830Z,51.25
2019-04-22T01:46:16.614Z,52.00
2019-04-22T01:48:57.789Z,52.27
2019-04-22T01:51:28.264Z,52.58
2019-04-22T01:53:58.519Z,52.50
2019-04-22T01:56:28.616Z,52.53
2019-04-22T01:58:50.329Z,52.78
2019-04-22T02:01:30.362Z,52.99
2019-04-22T02:04:02.717Z,52.78
2019-04-22T02:06:37.589Z,52.89
2019-04-22T02:09:10.655Z,53.09
2019-04-22T02:11:39.122Z,53.00
2019-04-22T02:14:09.209Z,53.01
2019-04-22T02:19:11.243Z,53.90
2019-04-22T02:21:35.768Z,53.86
2019-04-22T02:24:15.954Z,53.78
2019-04-22T02:26:41.699Z,53.49
2019-04-22T02:29:17.186Z,53.58
2019-04-22T02:31:55.874Z,53.56
2019-04-22T02:34:24.062Z,53.35
2019-04-22T02:36:54.336Z,53.32
2019-04-22T02:41:58.596Z,54.13
2019-04-22T02:44:28.782Z,54.36
2019-04-22T02:49:29.197Z,54.84
2019-04-22T02:52:06.406Z,54.86
2019-04-22T02:57:18.805Z,55.02
2019-04-22T02:59:43.283Z,55.11
2019-04-22T03:02:14.584Z,55.33
2019-04-22T03:04:37.409Z,55.52
2019-04-22T03:07:03.336Z,55.48
2019-04-22T03:09:38.350Z,55.21
2019-04-22T03:12:22.002Z,55.20
2019-04-22T03:17:25.540Z,55.94
2019-04-22T03:19:58.767Z,56.75
2019-04-22T03:27:37.109Z,56.98
2019-04-22T03:30:45.582Z,57.48
2019-04-22T03:37:50.358Z,58.84
2019-04-22T03:42:55.745Z,58.02
2019-04-22T03:48:01.912Z,58.69
2019-04-22T03:50:25.367Z,58.63
2019-04-22T03:53:05.924Z,58.68
2019-04-22T03:57:57.193Z,59.00
2019-04-22T04:08:15.129Z,60.14
2019-04-22T04:10:40.016Z,60.01
2019-04-22T04:13:21.103Z,59.88
2019-04-22T04:15:36.459Z,60.02
2019-04-22T04:18:13.303Z,59.79
2019-04-22T04:26:32.466Z,59.89
2019-04-22T04:31:02.008Z,59.35
2019-04-22T04:33:35.972Z,59.50
2019-04-22T04:36:14.624Z,60.13
2019-04-22T04:38:34.080Z,60.60
2019-04-22T04:41:06.278Z,60.97
2019-04-22T04:43:42.069Z,60.33
2019-04-22T04:46:09.388Z,60.07
2019-04-22T04:51:15.962Z,59.79
2019-04-22T04:53:53.096Z,59.80
2019-04-22T04:56:27.914Z,59.49
2019-04-22T04:58:55.841Z,59.28
2019-04-22T05:01:35.432Z,59.62
2019-04-22T05:03:59.401Z,59.67
2019-04-22T05:06:24.261Z,59.25
2019-04-22T05:11:24.946Z,58.37
2019-04-22T05:18:59.207Z,56.18
2019-04-22T05:21:33.079Z,56.55
2019-04-22T05:24:00.932Z,55.83
2019-04-22T05:26:30.997Z,54.18
2019-04-22T05:29:02.640Z,53.82
2019-04-22T05:31:32.614Z,53.79
2019-04-22T05:33:56.368Z,52.67
2019-04-22T05:36:30.017Z,52.06
2019-04-22T05:39:00.186Z,52.02
2019-04-22T05:41:36.452Z,51.49
2019-04-22T05:44:02.789Z,50.60
2019-04-22T05:46:34.777Z,49.62
2019-04-22T05:49:07.070Z,49.14
2019-04-22T05:51:42.017Z,49.19
2019-04-22T05:59:10.387Z,49.02
2019-04-22T06:01:51.775Z,49.33
2019-04-22T06:04:16.790Z,49.72
2019-04-22T06:06:51.624Z,49.25
2019-04-22T06:11:48.244Z,48.82
2019-04-22T06:14:20.397Z,48.87
2019-04-22T06:17:01.802Z,48.98
2019-04-22T06:19:24.499Z,49.49
2019-04-22T06:21:58.025Z,49.21
2019-04-22T06:24:50.720Z,48.91
2019-04-22T06:27:08.302Z,48.65
2019-04-22T06:29:30.135Z,48.89
2019-04-22T06:32:26.536Z,49.32
2019-04-22T06:37:13.034Z,48.68
2019-04-22T06:39:40.208Z,48.00
2019-04-22T06:42:13.418Z,48.14
2019-04-22T06:44:45.732Z,47.84
2019-04-22T06:47:28.674Z,47.87
2019-04-22T06:49:52.569Z,47.38
2019-04-22T06:52:17.740Z,47.04
2019-04-22T06:54:54.530Z,47.05
2019-04-22T06:57:19.465Z,46.95
2019-04-22T07:00:14.260Z,46.11
2019-04-22T07:02:33.809Z,46.76
2019-04-22T07:04:59.586Z,46.09
2019-04-22T07:07:25.182Z,45.64
2019-04-22T07:10:11.517Z,45.84
2019-04-22T07:12:30.474Z,46.03
2019-04-22T07:15:01.696Z,45.78
2019-04-22T07:17:39.431Z,45.72
2019-04-22T07:20:04.169Z,45.07
2019-04-22T07:22:38.919Z,45.09
2019-04-22T07:25:06.176Z,44.55
2019-04-22T07:27:44.127Z,44.81
2019-04-22T07:30:17.364Z,44.57
2019-04-22T07:33:04.819Z,45.12
2019-04-22T07:35:25.212Z,44.51
2019-04-22T07:37:47.093Z,43.51
2019-04-22T07:40:17.096Z,41.87
2019-04-22T07:42:52.098Z,42.76
2019-04-22T07:45:25.501Z,43.15
2019-04-22T07:50:37.427Z,43.12
2019-04-22T07:52:51.375Z,42.35
2019-04-22T07:55:27.241Z,43.44
2019-04-22T07:57:59.401Z,43.10
2019-04-22T08:00:34.087Z,42.68
2019-04-22T08:05:44.327Z,41.68
2019-04-22T08:08:13.050Z,41.42
2019-04-22T08:13:22.973Z,41.94
2019-04-22T08:18:17.490Z,42.32
2019-04-22T08:20:56.612Z,42.55
2019-04-22T08:23:23.754Z,43.02
2019-04-22T08:25:55.445Z,42.03
2019-04-22T08:28:31.747Z,41.43
2019-04-22T08:31:01.907Z,42.16
2019-04-22T08:33:38.191Z,41.19
2019-04-22T08:36:11.946Z,41.11
2019-04-22T08:38:46.955Z,40.88
2019-04-22T08:41:17.892Z,40.95
2019-04-22T08:43:55.865Z,41.38
2019-04-22T08:46:25.243Z,39.94
2019-04-22T08:48:52.985Z,39.72
2019-04-22T08:56:33.731Z,39.73
2019-04-22T08:59:07.061Z,39.03
2019-04-22T09:01:29.618Z,37.82
2019-04-22T09:04:00.605Z,36.78
2019-04-22T09:06:39.988Z,36.71
2019-04-22T09:09:02.083Z,36.42
2019-04-22T09:11:41.788Z,36.32
2019-04-22T09:16:37.365Z,36.50
2019-04-22T09:19:10.756Z,35.24
2019-04-22T09:21:43.346Z,35.37
2019-04-22T09:24:10.702Z,35.89
2019-04-22T09:26:44.502Z,35.82
2019-04-22T09:29:23.577Z,36.47
2019-04-22T09:31:49.769Z,36.30
2019-04-22T09:34:18.574Z,33.57
2019-04-22T09:36:50.265Z,30.48
2019-04-22T09:39:28.274Z,29.75
2019-04-22T09:41:52.111Z,29.58
2019-04-22T09:44:28.151Z,29.56
2019-04-22T09:46:51.999Z,29.21
2019-04-22T09:49:26.715Z,28.60
2019-04-22T09:52:01.473Z,27.42
2019-04-22T09:54:38.714Z,27.61
2019-04-22T09:57:01.584Z,27.67
2019-04-22T09:59:36.786Z,27.73
2019-04-22T10:02:19.728Z,27.39
2019-04-22T10:04:39.505Z,26.91
2019-04-22T10:07:13.068Z,27.02
2019-04-22T10:12:12.236Z,27.33
2019-04-22T10:14:45.121Z,26.54
2019-04-22T10:17:15.607Z,27.51
2019-04-22T10:19:41.062Z,27.55
2019-04-22T10:22:20.010Z,26.34
2019-04-22T10:24:45.388Z,26.33
2019-04-22T10:27:24.343Z,26.26
2019-04-22T10:29:54.174Z,25.97
2019-04-22T10:32:20.636Z,25.95
2019-04-22T10:34:38.772Z,26.29
2019-04-22T10:37:05.697Z,26.12
2019-04-22T10:39:43.861Z,26.12
2019-04-22T10:42:07.167Z,27.28
2019-04-22T10:44:37.375Z,26.51
2019-04-22T10:47:07.207Z,26.52
2019-04-22T10:49:38.236Z,26.25
2019-04-22T10:52:08.739Z,26.61
2019-04-22T10:54:38.647Z,26.53
2019-04-22T10:57:08.658Z,26.32
2019-04-22T10:59:38.561Z,26.81
2019-04-22T11:02:09.697Z,26.69
2019-04-22T11:04:40.436Z,27.16
2019-04-22T11:07:12.772Z,27.02
2019-04-22T11:09:51.689Z,26.11
2019-04-22T11:12:17.646Z,27.15
2019-04-22T11:14:45.515Z,30.07
2019-04-22T11:17:17.729Z,30.63
2019-04-22T11:19:47.945Z,27.55
2019-04-22T11:22:23.921Z,26.85
2019-04-22T11:24:50.692Z,26.89
2019-04-22T11:27:21.181Z,27.20
2019-04-22T11:29:50.907Z,27.07
2019-04-22T11:32:20.739Z,27.09
2019-04-22T11:34:51.213Z,26.71
2019-04-22T11:37:21.045Z,27.26
2019-04-22T11:40:04.875Z,26.03
2019-04-22T11:42:23.863Z,25.15
2019-04-22T11:44:55.127Z,26.27
2019-04-22T11:47:25.551Z,26.12
2019-04-22T11:49:55.556Z,26.12
2019-04-22T11:52:26.770Z,25.80
2019-04-22T11:54:57.008Z,25.58
2019-04-22T11:57:26.754Z,26.25
2019-04-22T11:59:56.619Z,25.09
2019-04-22T12:02:29.187Z,26.01
2019-04-22T12:04:58.972Z,25.74
2019-04-22T12:07:31.723Z,27.83
2019-04-22T12:10:13.271Z,26.98
2019-04-22T12:12:32.077Z,27.43
2019-04-22T12:15:02.039Z,28.07
2019-04-22T12:17:32.091Z,25.03
2019-04-22T12:20:05.063Z,25.70
2019-04-22T12:22:33.908Z,25.21
2019-04-22T12:25:10.565Z,25.21
2019-04-22T12:27:41.267Z,25.40
2019-04-22T12:30:19.584Z,25.60
2019-04-22T12:32:52.696Z,25.18
2019-04-22T12:35:24.203Z,25.75
2019-04-22T12:37:59.760Z,25.51
2019-04-22T12:40:37.268Z,25.49
2019-04-22T12:42:59.796Z,25.63
2019-04-22T12:45:30.117Z,24.96
2019-04-22T12:48:00.124Z,24.23
2019-04-22T12:50:34.907Z,24.15
2019-04-22T12:53:08.439Z,24.87
2019-04-22T12:55:34.361Z,24.15
2019-04-22T12:58:05.426Z,24.22
2019-04-22T13:00:36.324Z,26.04
2019-04-22T13:03:07.299Z,27.42
2019-04-22T13:05:37.572Z,27.56
2019-04-22T13:08:07.805Z,27.69
2019-04-22T13:10:45.772Z,28.89
2019-04-22T13:13:11.163Z,28.87
2019-04-22T13:15:41.370Z,28.27
2019-04-22T13:18:20.783Z,27.65
2019-04-22T13:20:44.299Z,27.42
2019-04-22T13:23:15.691Z,27.64
2019-04-22T13:25:47.143Z,27.55
2019-04-22T13:28:18.903Z,27.38
2019-04-22T13:30:50.917Z,27.47
2019-04-22T13:33:21.010Z,27.23
2019-04-22T13:35:52.131Z,27.07
2019-04-22T13:38:22.783Z,26.92
2019-04-22T13:41:12.496Z,26.93
2019-04-22T13:43:24.991Z,27.02
2019-04-22T13:45:56.050Z,26.95
2019-04-22T13:48:47.042Z,26.12
2019-04-22T13:54:29.997Z,26.75
2019-04-22T13:56:19.068Z,26.82
2019-04-22T13:58:45.874Z,26.86
2019-04-22T14:01:14.675Z,27.16
2019-04-22T14:04:04.816Z,27.04
2019-04-22T14:06:34.797Z,26.27
2019-04-22T14:09:07.467Z,26.67
2019-04-22T14:11:46.143Z,27.17
2019-04-22T14:14:09.225Z,26.93
2019-04-22T14:16:40.632Z,26.68
2019-04-22T14:19:11.907Z,26.39
2019-04-22T14:21:44.257Z,26.41
2019-04-22T14:24:14.336Z,26.09
2019-04-22T14:27:01.361Z,25.77
2019-04-22T14:29:17.500Z,25.96
2019-04-22T14:31:59.250Z,25.89
2019-04-22T14:34:20.901Z,26.58
2019-04-22T14:36:51.097Z,26.29
2019-04-22T14:39:21.987Z,25.90
2019-04-22T14:42:08.450Z,25.64
2019-04-22T14:45:16.906Z,25.86
2019-04-22T14:47:19.885Z,25.96
2019-04-22T14:49:48.188Z,26.18
2019-04-22T14:52:22.693Z,26.74
2019-04-22T14:54:41.292Z,26.51
2019-04-22T14:57:01.339Z,26.04
2019-04-22T14:59:32.566Z,26.12
2019-04-22T15:02:03.539Z,26.28
2019-04-22T15:04:33.440Z,26.38
2019-04-22T15:07:03.206Z,26.19
2019-04-22T15:09:34.187Z,26.42
2019-04-22T15:12:15.135Z,26.75
2019-04-22T15:14:35.647Z,27.01
2019-04-22T15:17:11.194Z,27.54
2019-04-22T15:19:43.799Z,27.54
2019-04-22T15:22:14.569Z,27.79
2019-04-22T15:24:45.024Z,27.88
2019-04-22T15:27:16.280Z,27.94
2019-04-22T15:29:47.250Z,28.37
2019-04-22T15:32:17.610Z,28.40
2019-04-22T15:34:48.879Z,29.03
2019-04-22T15:37:20.338Z,28.72
2019-04-22T15:39:50.176Z,28.09
2019-04-22T15:42:27.763Z,27.83
2019-04-22T15:44:51.721Z,27.82
2019-04-22T15:47:22.863Z,27.88
2019-04-22T15:49:53.969Z,27.79
2019-04-22T15:52:31.966Z,28.16
2019-04-22T15:54:56.363Z,27.37
2019-04-22T15:57:26.669Z,27.68
2019-04-22T16:00:13.131Z,27.30
2019-04-22T16:02:28.012Z,27.40
2019-04-22T16:04:58.857Z,27.44
2019-04-22T16:07:29.773Z,27.55
2019-04-22T16:09:59.825Z,27.21
2019-04-22T16:12:38.699Z,27.39
2019-04-22T16:15:03.188Z,27.42
2019-04-22T16:17:32.833Z,27.45
2019-04-22T16:20:03.690Z,27.37
2019-04-22T16:22:35.109Z,27.71
2019-04-22T16:25:25.015Z,27.56
2019-04-22T16:27:56.346Z,27.20
2019-04-22T16:30:27.688Z,27.35
2019-04-22T16:33:03.467Z,27.28
2019-04-22T16:35:34.954Z,27.50
2019-04-22T16:38:06.650Z,27.49
2019-04-22T16:40:36.808Z,27.57
2019-04-22T16:43:09.277Z,27.46
2019-04-22T16:45:38.161Z,27.61
2019-04-22T16:48:09.274Z,27.78
2019-04-22T16:50:42.841Z,27.76
2019-04-22T16:53:10.648Z,27.95
2019-04-22T16:55:41.044Z,28.07
2019-04-22T16:58:12.716Z,27.57
2019-04-22T17:00:43.128Z,26.99
2019-04-22T17:03:24.888Z,27.15
2019-04-22T17:06:09.830Z,27.42
2019-04-22T17:08:39.953Z,27.65
2019-04-22T17:11:09.953Z,27.64
2019-04-22T17:13:41.885Z,27.59
2019-04-22T17:16:11.948Z,28.78
2019-04-22T17:18:43.423Z,28.07
2019-04-22T17:21:14.662Z,28.15
2019-04-22T17:23:45.718Z,27.91
2019-04-22T17:26:16.741Z,28.00
2019-04-22T17:28:46.752Z,27.90
2019-04-22T17:31:16.596Z,27.97
2019-04-22T17:33:46.756Z,27.77
2019-04-22T17:36:18.206Z,29.13
2019-04-22T17:38:55.025Z,27.83
2019-04-22T17:41:30.262Z,29.01
2019-04-22T17:44:18.960Z,27.92
2019-04-22T17:46:40.270Z,27.96
2019-04-22T17:49:27.942Z,27.95
2019-04-22T17:52:10.802Z,27.90
2019-04-22T17:54:46.851Z,28.18
2019-04-22T17:57:09.972Z,28.18
2019-04-22T17:59:44.668Z,28.44
2019-04-22T18:02:16.741Z,28.47
2019-04-22T18:04:33.731Z,28.35
2019-04-22T18:07:24.834Z,28.75
2019-04-22T18:10:16.473Z,28.84
2019-04-22T18:12:34.017Z,29.18
2019-04-22T18:15:00.984Z,29.33
2019-04-22T18:17:30.572Z,29.55
2019-04-22T18:19:54.581Z,29.87
2019-04-22T18:22:21.842Z,30.11
2019-04-22T18:24:55.973Z,30.53
2019-04-22T18:30:00.017Z,31.41
2019-04-22T18:32:35.821Z,31.66
2019-04-22T18:35:07.257Z,32.05
2019-04-22T18:37:41.364Z,32.14
2019-04-22T18:40:11.705Z,32.19
2019-04-22T18:42:46.342Z,32.35
2019-04-22T18:45:29.674Z,32.44
2019-04-22T18:47:38.945Z,32.66
2019-04-22T18:50:22.015Z,32.46
2019-04-22T18:53:10.932Z,32.65
2019-04-22T18:55:35.205Z,32.63
2019-04-22T18:58:08.496Z,32.77
2019-04-22T19:00:41.844Z,32.84
2019-04-22T19:03:19.608Z,32.92
2019-04-22T19:06:11.791Z,32.83
2019-04-22T19:08:36.414Z,32.89
2019-04-22T19:11:20.980Z,32.83
2019-04-22T19:13:56.139Z,32.91
2019-04-22T19:16:25.784Z,32.71
2019-04-22T19:18:50.203Z,32.57
2019-04-22T19:21:14.955Z,32.37
2019-04-22T19:23:50.570Z,32.62
2019-04-22T19:26:32.421Z,32.06
2019-04-22T19:28:49.778Z,32.11
2019-04-22T19:31:24.664Z,32.12
2019-04-22T19:33:53.697Z,32.24
2019-04-22T19:36:26.116Z,32.28
2019-04-22T19:38:52.579Z,32.46
2019-04-22T19:41:29.214Z,32.39
2019-04-22T19:44:05.498Z,32.43
2019-04-22T19:46:28.679Z,32.46
2019-04-22T19:49:06.997Z,32.47
2019-04-22T19:51:57.295Z,32.40
2019-04-22T19:54:01.503Z,32.24
2019-04-22T19:56:28.231Z,32.15
2019-04-22T19:59:08.767Z,32.14
2019-04-22T20:01:54.179Z,32.15
2019-04-22T20:04:41.699Z,32.32
2019-04-22T20:07:08.399Z,32.06
2019-04-22T20:09:46.690Z,32.12
2019-04-22T20:12:15.140Z,32.03
2019-04-22T20:14:46.375Z,31.92
2019-04-22T20:17:19.834Z,31.99
2019-04-22T20:22:17.680Z,31.98
2019-04-22T20:24:44.792Z,31.84
2019-04-22T20:27:28.545Z,31.47
2019-04-22T20:30:13.218Z,31.59
2019-04-22T20:32:27.881Z,31.41
2019-04-22T20:35:02.972Z,31.57
2019-04-22T20:37:35.475Z,31.44
2019-04-22T20:40:00.502Z,31.56
2019-04-22T20:45:03.980Z,31.25
2019-04-22T20:47:30.633Z,31.41
2019-04-22T20:50:05.277Z,31.29
2019-04-22T20:52:50.519Z,31.57
2019-04-22T20:55:07.777Z,31.72
2019-04-22T20:57:48.450Z,31.46
2019-04-22T21:00:11.659Z,31.35
2019-04-22T21:02:37.640Z,31.55
2019-04-22T21:05:03.258Z,31.20
2019-04-22T21:07:52.967Z,31.16
2019-04-22T21:10:15.854Z,31.42
2019-04-22T21:12:39.995Z,31.94
2019-04-22T21:15:26.251Z,31.50
2019-04-22T21:17:53.793Z,31.75
2019-04-22T21:20:31.803Z,31.71
2019-04-22T21:22:56.259Z,31.89
2019-04-22T21:25:24.005Z,32.03
2019-04-22T21:28:04.862Z,32.28
2019-04-22T21:30:32.027Z,32.17
2019-04-22T21:32:58.238Z,32.40
2019-04-22T21:38:08.759Z,32.39
2019-04-22T21:40:39.498Z,32.45
2019-04-22T21:43:13.644Z,32.28
2019-04-22T21:45:37.628Z,32.37
2019-04-22T21:53:25.145Z,32.96
2019-04-22T21:56:03.957Z,32.93
2019-04-22T21:58:49.433Z,33.50
2019-04-22T22:01:29.137Z,33.54
2019-04-22T22:03:55.153Z,33.73
2019-04-22T22:06:16.617Z,33.68
2019-04-22T22:08:56.866Z,33.58
2019-04-22T22:11:26.054Z,33.96
2019-04-22T22:13:58.766Z,34.12
2019-04-22T22:16:23.352Z,34.01
2019-04-22T22:19:04.292Z,34.15
2019-04-22T22:21:43.901Z,34.07
2019-04-22T22:24:10.080Z,34.54
2019-04-22T22:26:40.702Z,34.61
2019-04-22T22:29:09.767Z,34.56
2019-04-22T22:31:40.243Z,34.72
2019-04-22T22:34:13.623Z,34.88
2019-04-22T22:36:36.868Z,35.06
2019-04-22T22:39:07.629Z,35.23
2019-04-22T22:41:23.972Z,35.42
2019-04-22T22:44:03.239Z,35.73
2019-04-22T22:46:34.173Z,35.83
2019-04-22T22:49:22.895Z,35.87
2019-04-22T22:52:11.691Z,35.83
2019-04-22T22:54:26.948Z,35.97
2019-04-22T22:59:30.006Z,36.55
2019-04-22T23:01:54.395Z,36.92
2019-04-22T23:04:37.273Z,37.32
2019-04-22T23:07:09.340Z,37.57
2019-04-22T23:09:30.712Z,37.72
2019-04-22T23:14:31.126Z,38.04
2019-04-22T23:16:52.875Z,38.31
2019-04-22T23:19:15.886Z,38.39
2019-04-22T23:21:49.470Z,38.54
2019-04-22T23:24:58.155Z,38.62
2019-04-22T23:27:34.591Z,38.82
2019-04-22T23:30:08.892Z,38.93
2019-04-22T23:32:42.651Z,39.23
2019-04-22T23:35:29.299Z,39.32
2019-04-22T23:37:59.613Z,39.46
2019-04-22T23:40:34.384Z,39.80
2019-04-22T23:43:09.421Z,39.99
2019-04-22T23:45:43.325Z,40.17
2019-04-22T23:48:05.841Z,40.46
2019-04-22T23:50:37.764Z,40.82
2019-04-22T23:53:31.626Z,41.06
2019-04-22T23:55:51.203Z,41.00
2019-04-22T23:58:34.950Z,41.32
